createdAt,value
2022-09-20T00:03:51.105Z,15.53
2022-09-20T00:07:54.661Z,15.26
2022-09-20T00:11:56.935Z,14.36
2022-09-20T00:15:59.730Z,14.35
2022-09-20T00:20:01.949Z,14.01
2022-09-20T00:24:04.390Z,13.89
2022-09-20T00:28:07.245Z,13.80
2022-09-20T00:32:09.301Z,13.78
2022-09-20T00:36:11.474Z,13.91
2022-09-20T00:40:17.637Z,14.00
2022-09-20T00:44:45.566Z,13.98
2022-09-20T00:48:49.439Z,13.93
2022-09-20T00:52:58.401Z,13.50
2022-09-20T00:57:00.819Z,13.37
2022-09-20T01:01:12.350Z,13.24
2022-09-20T01:05:17.251Z,13.11
2022-09-20T01:09:19.637Z,12.76
2022-09-20T01:13:21.836Z,12.62
2022-09-20T01:17:27.580Z,12.75
2022-09-20T01:21:30.222Z,12.44
2022-09-20T01:25:54.219Z,12.31
2022-09-20T01:30:26.050Z,12.13
2022-09-20T01:34:36.533Z,11.96
2022-09-20T01:38:50.766Z,11.89
2022-09-20T01:43:07.586Z,11.54
2022-09-20T01:47:41.869Z,11.46
2022-09-20T01:52:13.201Z,11.50
2022-09-20T01:56:21.107Z,11.26
2022-09-20T02:00:26.602Z,11.21
2022-09-20T02:04:45.965Z,10.95
2022-09-20T02:09:45.917Z,10.90
2022-09-20T02:14:22.003Z,10.94
2022-09-20T02:19:01.678Z,10.98
2022-09-20T02:23:33.330Z,11.04
2022-09-20T02:27:56.646Z,11.03
2022-09-20T02:32:13.121Z,10.98
2022-09-20T02:36:21.226Z,10.93
2022-09-20T02:41:02.160Z,11.00
2022-09-20T02:45:21.237Z,10.82
2022-09-20T02:49:52.309Z,10.83
2022-09-20T02:54:19.293Z,10.54
2022-09-20T02:58:36.568Z,10.48
2022-09-20T03:03:23.146Z,10.52
2022-09-20T03:08:10.205Z,10.40
2022-09-20T03:12:31.600Z,10.19
2022-09-20T03:16:43.658Z,10.22
2022-09-20T03:21:49.661Z,10.04
2022-09-20T03:26:13.633Z,10.02
2022-09-20T03:30:34.287Z,9.79
2022-09-20T03:35:03.970Z,9.47
2022-09-20T03:39:35.236Z,9.48
2022-09-20T03:50:01.108Z,9.46
2022-09-20T03:54:15.246Z,9.29
2022-09-20T03:58:30.425Z,9.30
2022-09-20T04:02:56.898Z,9.26
2022-09-20T04:07:15.022Z,9.03
2022-09-20T04:11:26.236Z,9.12
2022-09-20T04:15:46.540Z,9.21
2022-09-20T04:20:15.671Z,9.28
2022-09-20T04:24:18.332Z,9.59
2022-09-20T04:28:48.734Z,9.44
2022-09-20T04:33:03.596Z,9.64
2022-09-20T04:37:26.438Z,10.70
2022-09-20T04:42:07.123Z,10.63
2022-09-20T04:46:21.350Z,11.20
2022-09-20T04:50:26.854Z,11.24
2022-09-20T04:55:10.335Z,11.13
2022-09-20T04:59:58.128Z,11.26
2022-09-20T05:04:12.887Z,12.11
2022-09-20T05:08:42.995Z,12.14
2022-09-20T05:12:54.683Z,12.45
2022-09-20T05:17:09.351Z,12.56
2022-09-20T05:21:46.556Z,12.86
2022-09-20T05:25:58.537Z,12.88
2022-09-20T05:30:05.135Z,12.78
2022-09-20T05:34:39.617Z,13.01
2022-09-20T05:38:49.129Z,13.07
2022-09-20T05:43:14.654Z,13.29
2022-09-20T05:47:24.761Z,13.52
2022-09-20T05:51:40.268Z,13.64
2022-09-20T05:56:19.787Z,13.77
2022-09-20T06:00:27.853Z,14.02
2022-09-20T06:04:42.690Z,14.13
2022-09-20T06:08:54.849Z,14.32
2022-09-20T06:13:24.925Z,14.43
2022-09-20T06:17:43.439Z,14.51
2022-09-20T06:22:03.051Z,14.35
2022-09-20T06:26:17.414Z,14.14
2022-09-20T06:30:50.368Z,14.45
2022-09-20T06:34:53.561Z,14.68
2022-09-20T06:39:38.309Z,14.88
2022-09-20T06:43:41.133Z,14.98
2022-09-20T06:47:43.407Z,15.32
2022-09-20T06:51:45.684Z,15.51
2022-09-20T06:55:48.033Z,15.51
2022-09-20T06:59:50.117Z,15.68
2022-09-20T07:03:52.831Z,15.89
2022-09-20T07:07:58.963Z,16.06
2022-09-20T07:12:01.074Z,16.15
2022-09-20T07:16:05.703Z,16.43
2022-09-20T07:20:08.188Z,16.58
2022-09-20T07:24:10.492Z,16.77
2022-09-20T07:28:17.717Z,16.92
2022-09-20T07:32:19.975Z,17.09
2022-09-20T07:36:23.458Z,17.25
2022-09-20T07:40:27.584Z,17.38
2022-09-20T07:44:29.678Z,17.56
2022-09-20T07:48:34.512Z,17.75
2022-09-20T07:52:36.505Z,17.86
2022-09-20T07:56:38.772Z,18.08
2022-09-20T08:00:40.928Z,18.11
2022-09-20T08:04:43.584Z,18.16
2022-09-20T08:08:45.849Z,18.30
2022-09-20T08:17:11.619Z,18.38
2022-09-20T08:21:14.737Z,18.47
2022-09-20T08:25:17.943Z,18.52
2022-09-20T08:29:20.437Z,18.62
2022-09-20T08:33:22.415Z,18.68
2022-09-20T08:37:24.492Z,18.78
2022-09-20T08:41:57.049Z,18.85
2022-09-20T08:46:05.441Z,18.89
2022-09-20T08:50:11.756Z,19.01
2022-09-20T08:54:16.439Z,19.09
2022-09-20T08:58:20.150Z,19.23
2022-09-20T09:02:22.857Z,19.27
2022-09-20T09:06:25.168Z,19.33
2022-09-20T09:10:43.389Z,19.34
2022-09-20T09:14:50.937Z,19.46
2022-09-20T09:18:53.632Z,19.50
2022-09-20T09:23:04.127Z,19.61
2022-09-20T09:27:19.630Z,19.67
2022-09-20T09:31:26.507Z,19.75
2022-09-20T09:35:31.781Z,19.85
2022-09-20T09:39:38.368Z,20.00
2022-09-20T09:43:40.856Z,20.05
2022-09-20T09:47:42.857Z,20.09
2022-09-20T09:52:33.264Z,20.21
2022-09-20T09:56:47.397Z,20.31
2022-09-20T10:00:50.236Z,20.33
2022-09-20T10:05:04.782Z,20.40
2022-09-20T10:09:23.079Z,20.44
2022-09-20T10:13:36.022Z,20.47
2022-09-20T10:18:00.480Z,20.64
2022-09-20T10:22:38.328Z,20.75
2022-09-20T10:27:02.480Z,20.85
2022-09-20T10:31:30.973Z,20.94
2022-09-20T10:35:56.068Z,20.97
2022-09-20T10:40:20.847Z,21.12
2022-09-20T10:44:50.277Z,21.20
2022-09-20T10:49:04.006Z,21.22
2022-09-20T10:53:36.763Z,21.35
2022-09-20T10:58:01.574Z,21.49
2022-09-20T11:02:38.351Z,21.46
2022-09-20T11:10:58.245Z,21.54
2022-09-20T11:15:08.343Z,21.69
2022-09-20T11:19:10.310Z,21.78
2022-09-20T11:23:48.459Z,21.89
2022-09-20T11:28:04.603Z,21.91
2022-09-20T11:32:18.302Z,21.93
2022-09-20T11:36:27.727Z,22.13
2022-09-20T11:40:43.380Z,22.15
2022-09-20T11:44:46.145Z,22.28
2022-09-20T11:48:58.717Z,22.19
2022-09-20T11:53:36.838Z,22.32
2022-09-20T11:57:39.842Z,22.38
2022-09-20T12:01:44.345Z,22.36
2022-09-20T12:05:47.331Z,22.40
2022-09-20T12:10:19.789Z,22.50
2022-09-20T12:14:25.618Z,22.57
2022-09-20T12:18:35.327Z,22.69
2022-09-20T12:22:37.545Z,22.75
2022-09-20T12:26:43.188Z,22.76
2022-09-20T12:30:45.527Z,22.83
2022-09-20T12:34:47.533Z,22.95
2022-09-20T12:39:19.103Z,23.07
2022-09-20T12:43:24.431Z,23.04
2022-09-20T12:47:33.493Z,23.17
2022-09-20T12:51:55.954Z,23.24
2022-09-20T12:56:07.664Z,23.29
2022-09-20T13:00:40.718Z,23.22
2022-09-20T13:04:57.624Z,23.00
2022-09-20T13:09:09.196Z,23.07
2022-09-20T13:13:20.856Z,23.06
2022-09-20T13:17:31.059Z,22.96
2022-09-20T13:21:43.255Z,23.12
2022-09-20T13:25:45.555Z,23.20
2022-09-20T13:29:47.681Z,23.31
2022-09-20T13:33:50.223Z,23.25
2022-09-20T13:37:59.317Z,23.27
2022-09-20T13:42:11.516Z,23.32
2022-09-20T13:46:17.982Z,23.38
2022-09-20T13:50:33.024Z,23.41
2022-09-20T13:54:36.020Z,23.31
2022-09-20T13:58:38.750Z,23.43
2022-09-20T14:02:42.998Z,23.60
2022-09-20T14:06:46.576Z,23.76
2022-09-20T14:11:03.407Z,23.87
2022-09-20T14:15:09.519Z,23.85
2022-09-20T14:19:15.616Z,23.90
2022-09-20T14:23:26.796Z,23.89
2022-09-20T14:27:31.692Z,23.73
2022-09-20T14:31:35.033Z,23.65
2022-09-20T14:35:37.646Z,23.76
2022-09-20T14:39:51.910Z,23.82
2022-09-20T14:44:00.790Z,23.87
2022-09-20T14:48:11.085Z,24.17
2022-09-20T14:52:26.847Z,24.27
2022-09-20T14:56:37.233Z,24.37
2022-09-20T15:01:05.355Z,24.34
2022-09-20T15:05:19.053Z,23.98
2022-09-20T15:09:23.148Z,23.92
2022-09-20T15:13:25.706Z,23.92
2022-09-20T15:17:27.630Z,23.84
2022-09-20T15:21:30.573Z,23.77
2022-09-20T15:25:33.773Z,23.73
2022-09-20T15:29:36.445Z,23.74
2022-09-20T15:33:38.622Z,23.86
2022-09-20T15:37:43.150Z,24.02
2022-09-20T15:41:46.817Z,24.26
2022-09-20T15:45:54.203Z,24.50
2022-09-20T15:49:56.877Z,24.67
2022-09-20T15:54:01.789Z,24.85
2022-09-20T15:58:04.384Z,26.20
2022-09-20T16:02:08.770Z,26.91
2022-09-20T16:06:11.766Z,26.71
2022-09-20T16:10:14.107Z,25.97
2022-09-20T16:14:16.530Z,26.04
2022-09-20T16:18:37.702Z,25.01
2022-09-20T16:22:41.762Z,25.06
2022-09-20T16:26:44.344Z,25.23
2022-09-20T16:30:57.022Z,25.37
2022-09-20T16:35:01.574Z,25.19
2022-09-20T16:39:04.116Z,25.10
2022-09-20T16:43:08.811Z,24.67
2022-09-20T16:47:18.176Z,24.21
2022-09-20T16:51:26.063Z,23.37
2022-09-20T16:55:28.094Z,22.70
2022-09-20T16:59:31.518Z,22.16
2022-09-20T17:03:35.182Z,21.74
2022-09-20T17:07:37.615Z,21.30
2022-09-20T17:11:49.338Z,20.79
2022-09-20T17:16:03.600Z,20.36
2022-09-20T17:20:07.934Z,20.06
2022-09-20T17:24:10.451Z,19.76
2022-09-20T17:28:13.735Z,19.46
2022-09-20T17:32:16.844Z,19.25
2022-09-20T17:36:21.525Z,19.03
2022-09-20T17:40:23.684Z,18.87
2022-09-20T17:44:25.802Z,18.74
2022-09-20T17:48:28.025Z,18.68
2022-09-20T17:52:32.285Z,18.65
2022-09-20T17:56:35.649Z,18.57
2022-09-20T18:00:38.909Z,18.46
2022-09-20T18:04:42.695Z,18.32
2022-09-20T18:08:48.511Z,18.25
2022-09-20T18:12:52.194Z,18.15
2022-09-20T18:16:58.349Z,18.08
2022-09-20T18:21:00.651Z,17.99
2022-09-20T18:25:04.089Z,17.91
2022-09-20T18:29:12.390Z,17.84
2022-09-20T18:33:17.202Z,17.79
2022-09-20T18:37:19.295Z,17.74
2022-09-20T18:41:25.623Z,17.68
2022-09-20T18:45:27.626Z,17.61
2022-09-20T18:49:30.739Z,17.53
2022-09-20T18:53:37.807Z,17.44
2022-09-20T18:57:40.072Z,17.36
2022-09-20T19:01:56.336Z,17.27
2022-09-20T19:06:07.000Z,17.14
2022-09-20T19:10:25.055Z,16.98
2022-09-20T19:14:46.094Z,16.88
2022-09-20T19:19:14.769Z,16.68
2022-09-20T19:23:32.075Z,16.69
2022-09-20T19:27:35.108Z,16.63
2022-09-20T19:31:37.710Z,16.55
2022-09-20T19:35:49.373Z,16.51
2022-09-20T19:39:54.469Z,16.34
2022-09-20T19:44:10.270Z,16.38
2022-09-20T19:48:28.310Z,16.22
2022-09-20T19:52:32.166Z,16.21
2022-09-20T19:56:48.276Z,16.12
2022-09-20T20:00:53.889Z,16.02
2022-09-20T20:05:33.114Z,16.00
2022-09-20T20:09:59.269Z,15.99
2022-09-20T20:14:44.666Z,15.99
2022-09-20T20:19:13.633Z,15.95
2022-09-20T20:23:41.469Z,15.87
2022-09-20T20:27:43.760Z,15.88
2022-09-20T20:31:47.273Z,15.89
2022-09-20T20:36:01.662Z,15.87
2022-09-20T20:40:05.306Z,15.77
2022-09-20T20:44:07.347Z,15.58
2022-09-20T20:48:09.392Z,15.54
2022-09-20T20:52:11.428Z,15.41
2022-09-20T20:56:29.798Z,15.34
2022-09-20T21:00:35.243Z,15.30
2022-09-20T21:04:39.988Z,15.36
2022-09-20T21:08:49.034Z,15.42
2022-09-20T21:12:56.120Z,15.31
2022-09-20T21:16:58.569Z,15.09
2022-09-20T21:21:02.687Z,14.99
2022-09-20T21:25:09.852Z,14.95
2022-09-20T21:29:15.772Z,14.94
2022-09-20T21:33:21.302Z,14.85
2022-09-20T21:37:23.654Z,14.84
2022-09-20T21:41:31.021Z,14.73
2022-09-20T21:45:35.039Z,14.73
2022-09-20T21:49:37.458Z,14.66
2022-09-20T21:53:40.376Z,14.65
2022-09-20T21:57:42.602Z,14.64
2022-09-20T22:01:44.707Z,14.52
2022-09-20T22:05:47.527Z,14.40
2022-09-20T22:09:49.487Z,14.27
2022-09-20T22:13:53.767Z,14.20
2022-09-20T22:17:56.633Z,14.15
2022-09-20T22:21:58.822Z,14.11
2022-09-20T22:26:07.221Z,13.99
2022-09-20T22:30:10.482Z,13.89
2022-09-20T22:34:21.058Z,13.71
2022-09-20T22:38:23.063Z,13.36
2022-09-20T22:42:24.998Z,13.40
2022-09-20T22:46:29.668Z,13.25
2022-09-20T22:50:31.742Z,13.23
2022-09-20T22:54:35.591Z,13.06
2022-09-20T22:58:43.290Z,13.07
2022-09-20T23:02:45.252Z,13.02
2022-09-20T23:07:02.583Z,12.96
2022-09-20T23:11:06.265Z,12.96
2022-09-20T23:15:11.665Z,13.10
2022-09-20T23:19:13.991Z,13.09
2022-09-20T23:23:23.623Z,13.14
2022-09-20T23:27:25.619Z,13.03
2022-09-20T23:31:29.006Z,13.08
2022-09-20T23:35:31.125Z,12.95
2022-09-20T23:39:33.465Z,12.60
2022-09-20T23:43:37.202Z,12.61
2022-09-20T23:47:39.472Z,12.48
2022-09-20T23:51:41.504Z,12.42
2022-09-20T23:55:43.500Z,12.39
2022-09-20T23:59:45.447Z,12.41
